createdAt,value
2018-07-30T00:01:38.328Z,24.70
2018-07-30T00:04:09.803Z,24.60
2018-07-30T00:06:39.700Z,24.60
2018-07-30T00:09:10.638Z,24.60
2018-07-30T00:11:40.722Z,24.60
2018-07-30T00:14:13.947Z,24.60
2018-07-30T00:16:44.466Z,24.60
2018-07-30T00:19:14.213Z,24.60
2018-07-30T00:21:44.008Z,24.60
2018-07-30T00:24:13.785Z,24.60
2018-07-30T00:26:43.565Z,24.50
2018-07-30T00:29:13.400Z,24.50
2018-07-30T00:31:43.841Z,24.50
2018-07-30T00:34:13.626Z,24.50
2018-07-30T00:36:44.096Z,24.40
2018-07-30T00:41:43.173Z,24.30
2018-07-30T00:44:12.956Z,24.40
2018-07-30T00:46:42.790Z,24.40
2018-07-30T00:49:12.573Z,24.50
2018-07-30T00:51:42.441Z,24.50
2018-07-30T00:54:12.271Z,24.50
2018-07-30T00:56:42.107Z,24.60
2018-07-30T00:59:12.448Z,24.40
2018-07-30T01:01:42.226Z,24.30
2018-07-30T01:04:11.996Z,24.40
2018-07-30T01:06:41.804Z,24.40
2018-07-30T01:09:11.845Z,24.40
2018-07-30T01:11:42.412Z,24.40
2018-07-30T01:14:15.914Z,24.20
2018-07-30T01:16:46.332Z,24.20
2018-07-30T01:19:16.090Z,24.10
2018-07-30T01:21:46.533Z,24.10
2018-07-30T01:24:16.317Z,24.20
2018-07-30T01:26:46.841Z,24.30
2018-07-30T01:29:16.585Z,24.20
2018-07-30T01:31:47.112Z,24.20
2018-07-30T01:34:17.681Z,24.10
2018-07-30T01:36:48.224Z,24.20
2018-07-30T01:39:18.436Z,24.20
2018-07-30T01:41:48.278Z,24.30
2018-07-30T01:44:18.841Z,24.10
2018-07-30T01:46:48.971Z,24.00
2018-07-30T01:49:18.727Z,24.00
2018-07-30T01:51:48.530Z,24.00
2018-07-30T01:54:18.343Z,23.90
2018-07-30T01:56:48.066Z,23.80
2018-07-30T01:59:18.592Z,23.90
2018-07-30T02:01:48.357Z,24.00
2018-07-30T02:04:18.448Z,24.00
2018-07-30T02:06:48.891Z,23.90
2018-07-30T02:09:19.012Z,23.90
2018-07-30T02:11:48.810Z,23.90
2018-07-30T02:14:19.843Z,23.90
2018-07-30T02:16:50.261Z,23.90
2018-07-30T02:19:21.028Z,23.90
2018-07-30T02:21:50.841Z,24.00
2018-07-30T02:24:20.604Z,24.00
2018-07-30T02:26:50.992Z,24.00
2018-07-30T02:29:21.573Z,24.00
2018-07-30T02:31:51.341Z,24.00
2018-07-30T02:34:21.092Z,23.90
2018-07-30T02:36:51.428Z,23.80
2018-07-30T02:39:21.232Z,23.70
2018-07-30T02:41:51.048Z,23.60
2018-07-30T02:44:21.524Z,23.60
2018-07-30T02:46:51.342Z,23.60
2018-07-30T02:49:21.211Z,23.60
2018-07-30T02:51:52.289Z,23.50
2018-07-30T02:54:22.828Z,23.40
2018-07-30T02:56:52.954Z,23.40
2018-07-30T02:59:23.947Z,23.30
2018-07-30T03:01:53.732Z,23.30
2018-07-30T03:04:24.189Z,22.90
2018-07-30T03:06:53.975Z,22.70
2018-07-30T03:09:23.775Z,22.90
2018-07-30T03:11:54.160Z,23.00
2018-07-30T03:14:25.387Z,23.10
2018-07-30T03:16:55.153Z,23.20
2018-07-30T03:19:24.934Z,23.30
2018-07-30T03:21:54.733Z,23.40
2018-07-30T03:26:54.652Z,23.40
2018-07-30T03:29:25.089Z,23.50
2018-07-30T03:31:55.841Z,23.40
2018-07-30T03:34:26.962Z,23.40
2018-07-30T03:36:56.732Z,23.40
2018-07-30T03:39:26.543Z,23.40
2018-07-30T03:41:56.400Z,23.40
2018-07-30T03:44:26.592Z,23.40
2018-07-30T03:46:57.208Z,23.40
2018-07-30T03:49:27.089Z,23.40
2018-07-30T03:51:56.862Z,23.40
2018-07-30T03:54:26.644Z,23.30
2018-07-30T03:56:56.459Z,23.30
2018-07-30T03:59:26.233Z,23.30
2018-07-30T04:01:56.411Z,23.30
2018-07-30T04:04:26.241Z,23.30
2018-07-30T04:06:56.018Z,23.30
2018-07-30T04:09:25.782Z,23.30
2018-07-30T04:11:55.562Z,23.40
2018-07-30T04:14:25.355Z,23.40
2018-07-30T04:16:55.116Z,23.40
2018-07-30T04:19:24.880Z,23.30
2018-07-30T04:21:55.732Z,23.30
2018-07-30T04:24:26.018Z,23.30
2018-07-30T04:26:55.805Z,23.30
2018-07-30T04:29:25.633Z,23.30
2018-07-30T04:31:55.442Z,23.30
2018-07-30T04:34:25.280Z,23.30
2018-07-30T04:36:55.964Z,23.30
2018-07-30T04:39:25.720Z,23.10
2018-07-30T04:41:56.296Z,23.10
2018-07-30T04:44:26.714Z,23.20
2018-07-30T04:46:56.477Z,23.30
2018-07-30T04:49:29.796Z,23.30
2018-07-30T04:51:59.560Z,23.30
2018-07-30T04:54:30.205Z,23.30
2018-07-30T04:57:00.026Z,23.30
2018-07-30T04:59:29.731Z,23.30
2018-07-30T05:01:59.514Z,23.30
2018-07-30T05:04:30.116Z,23.30
2018-07-30T05:07:00.676Z,23.40
2018-07-30T05:09:30.496Z,23.40
2018-07-30T05:12:01.325Z,23.50
2018-07-30T05:14:31.119Z,23.50
2018-07-30T05:17:01.677Z,23.40
2018-07-30T05:19:31.502Z,23.40
2018-07-30T05:22:01.248Z,23.40
2018-07-30T05:27:01.133Z,23.50
2018-07-30T05:29:31.217Z,23.50
2018-07-30T05:32:01.792Z,23.40
2018-07-30T05:34:31.589Z,23.40
2018-07-30T05:37:01.377Z,23.40
2018-07-30T05:39:31.224Z,23.40
2018-07-30T05:42:01.154Z,23.40
2018-07-30T05:44:30.903Z,23.40
2018-07-30T05:47:01.579Z,23.40
2018-07-30T05:52:00.553Z,23.50
2018-07-30T05:54:31.112Z,23.30
2018-07-30T05:57:06.345Z,23.30
2018-07-30T05:59:36.186Z,23.20
2018-07-30T06:02:06.870Z,23.30
2018-07-30T06:04:36.631Z,23.40
2018-07-30T06:07:07.067Z,23.50
2018-07-30T06:09:37.449Z,23.60
2018-07-30T06:12:07.252Z,23.60
2018-07-30T06:17:07.218Z,23.70
2018-07-30T06:19:37.078Z,23.80
2018-07-30T06:22:08.242Z,23.90
2018-07-30T06:24:38.691Z,24.00
2018-07-30T06:27:09.252Z,24.00
2018-07-30T06:29:39.866Z,24.00
2018-07-30T06:32:09.704Z,24.00
2018-07-30T06:34:39.472Z,24.00
2018-07-30T06:37:09.277Z,24.10
2018-07-30T06:39:39.068Z,24.10
2018-07-30T06:42:08.834Z,24.10
2018-07-30T06:44:39.304Z,24.20
2018-07-30T06:47:09.862Z,24.40
2018-07-30T06:49:40.443Z,24.30
2018-07-30T06:52:10.433Z,24.40
2018-07-30T06:54:41.179Z,24.60
2018-07-30T06:57:10.993Z,24.70
2018-07-30T06:59:41.597Z,24.80
2018-07-30T07:02:12.421Z,24.90
2018-07-30T07:04:42.201Z,25.00
2018-07-30T07:07:12.015Z,25.10
2018-07-30T07:09:41.835Z,25.30
2018-07-30T07:12:11.674Z,25.40
2018-07-30T07:14:42.275Z,25.50
2018-07-30T07:19:41.448Z,25.80
2018-07-30T07:22:11.274Z,26.10
2018-07-30T07:24:42.301Z,26.20
2018-07-30T07:27:12.636Z,26.60
2018-07-30T07:29:43.214Z,26.50
2018-07-30T07:32:13.066Z,26.40
2018-07-30T07:34:42.892Z,26.40
2018-07-30T07:37:12.709Z,26.40
2018-07-30T07:39:42.549Z,26.40
2018-07-30T07:42:12.470Z,26.60
2018-07-30T07:44:42.270Z,26.70
2018-07-30T07:47:12.829Z,26.90
2018-07-30T07:49:43.720Z,26.80
2018-07-30T07:52:14.291Z,27.00
2018-07-30T07:54:44.059Z,27.10
2018-07-30T07:57:13.864Z,27.20
2018-07-30T07:59:43.652Z,27.50
2018-07-30T08:02:13.464Z,27.50
2018-07-30T08:04:44.061Z,27.40
2018-07-30T08:07:14.460Z,27.50
2018-07-30T08:09:51.869Z,27.70
2018-07-30T08:12:22.285Z,28.10
2018-07-30T08:14:52.045Z,28.20
2018-07-30T08:17:22.522Z,28.20
2018-07-30T08:19:52.979Z,28.50
2018-07-30T08:22:23.091Z,28.60
2018-07-30T08:24:52.985Z,28.80
2018-07-30T08:27:25.358Z,28.90
2018-07-30T08:29:55.332Z,29.20
2018-07-30T08:32:25.909Z,29.60
2018-07-30T08:34:55.701Z,30.00
2018-07-30T08:37:26.925Z,30.10
2018-07-30T08:39:56.698Z,30.20
2018-07-30T08:42:26.537Z,30.30
2018-07-30T08:44:56.385Z,30.70
2018-07-30T08:49:55.438Z,31.40
2018-07-30T08:52:25.217Z,31.80
2018-07-30T08:54:55.623Z,31.80
2018-07-30T08:59:54.764Z,32.30
2018-07-30T09:02:24.632Z,32.60
2018-07-30T09:04:54.390Z,32.70
2018-07-30T09:07:24.233Z,33.00
2018-07-30T09:09:54.031Z,33.40
2018-07-30T09:12:23.901Z,33.50
2018-07-30T09:14:54.615Z,33.80
2018-07-30T09:17:25.221Z,34.20
2018-07-30T09:19:56.828Z,34.40
2018-07-30T09:22:27.324Z,34.00
2018-07-30T09:24:57.976Z,34.20
2018-07-30T09:27:27.751Z,34.50
2018-07-30T09:29:57.570Z,35.10
2018-07-30T09:34:57.295Z,38.30
2018-07-30T09:37:27.433Z,39.20
2018-07-30T09:39:57.209Z,38.40
2018-07-30T09:42:28.128Z,37.90
2018-07-30T09:44:57.974Z,38.50
2018-07-30T09:47:28.328Z,39.10
2018-07-30T09:49:58.750Z,40.00
2018-07-30T09:52:29.285Z,40.70
2018-07-30T09:54:59.056Z,41.80
2018-07-30T09:57:29.699Z,43.00
2018-07-30T09:59:59.579Z,43.20
2018-07-30T10:02:29.382Z,43.30
2018-07-30T10:05:00.196Z,44.00
2018-07-30T10:07:29.992Z,44.40
2018-07-30T10:09:59.892Z,44.70
2018-07-30T10:12:29.733Z,44.90
2018-07-30T10:14:59.628Z,45.20
2018-07-30T10:17:29.500Z,45.50
2018-07-30T10:19:59.277Z,44.20
2018-07-30T10:22:29.117Z,44.60
2018-07-30T10:24:58.946Z,45.00
2018-07-30T10:27:28.745Z,43.60
2018-07-30T10:29:58.566Z,42.90
2018-07-30T10:32:28.427Z,43.10
2018-07-30T10:34:59.469Z,43.40
2018-07-30T10:37:29.749Z,43.20
2018-07-30T10:39:59.677Z,43.00
2018-07-30T10:42:30.070Z,42.30
2018-07-30T10:45:00.394Z,42.70
2018-07-30T10:47:32.448Z,42.60
2018-07-30T10:50:02.737Z,42.70
2018-07-30T10:52:33.770Z,43.30
2018-07-30T10:57:40.846Z,42.70
2018-07-30T11:00:10.680Z,42.20
2018-07-30T11:02:41.168Z,41.90
2018-07-30T11:05:11.012Z,42.50
2018-07-30T11:07:41.173Z,42.60
2018-07-30T11:10:11.054Z,42.90
2018-07-30T11:12:41.316Z,42.50
2018-07-30T11:15:11.249Z,42.00
2018-07-30T11:17:41.061Z,41.70
2018-07-30T11:20:10.889Z,42.30
2018-07-30T11:22:40.701Z,42.10
2018-07-30T11:25:10.550Z,41.80
2018-07-30T11:27:41.016Z,41.60
2018-07-30T11:30:10.838Z,41.60
2018-07-30T11:32:41.877Z,42.30
2018-07-30T11:35:13.146Z,43.40
2018-07-30T11:37:43.035Z,43.80
2018-07-30T11:42:42.804Z,43.10
2018-07-30T11:45:13.438Z,42.20
2018-07-30T11:47:43.239Z,42.30
2018-07-30T11:50:13.020Z,42.10
2018-07-30T11:52:43.624Z,42.90
2018-07-30T11:55:14.035Z,43.70
2018-07-30T11:57:44.163Z,43.60
2018-07-30T12:00:14.795Z,44.20
2018-07-30T12:02:44.631Z,44.80
2018-07-30T12:05:14.455Z,44.50
2018-07-30T12:07:44.448Z,43.40
2018-07-30T12:10:14.353Z,42.10
2018-07-30T12:12:44.193Z,42.20
2018-07-30T12:15:14.012Z,43.20
2018-07-30T12:17:43.905Z,42.70
2018-07-30T12:20:13.754Z,41.40
2018-07-30T12:22:44.289Z,40.70
2018-07-30T12:25:14.085Z,39.30
2018-07-30T12:27:43.879Z,38.00
2018-07-30T12:30:13.791Z,37.00
2018-07-30T12:32:43.663Z,36.30
2018-07-30T12:35:13.545Z,35.60
2018-07-30T12:37:43.740Z,35.30
2018-07-30T12:40:13.547Z,35.10
2018-07-30T12:45:12.630Z,34.50
2018-07-30T12:47:42.540Z,34.60
2018-07-30T12:50:12.312Z,34.50
2018-07-30T12:52:42.081Z,34.10
2018-07-30T12:55:11.900Z,34.00
2018-07-30T12:57:42.041Z,34.00
2018-07-30T13:00:11.845Z,34.10
2018-07-30T13:02:41.670Z,34.20
2018-07-30T13:05:11.477Z,34.20
2018-07-30T13:07:41.277Z,34.20
2018-07-30T13:10:11.085Z,33.90
2018-07-30T13:12:40.962Z,33.90
2018-07-30T13:15:11.197Z,33.90
2018-07-30T13:17:41.003Z,34.10
2018-07-30T13:20:11.474Z,34.10
2018-07-30T13:22:41.439Z,34.20
2018-07-30T13:25:11.311Z,34.20
2018-07-30T13:27:41.103Z,34.40
2018-07-30T13:30:10.937Z,34.40
2018-07-30T13:32:40.736Z,34.60
2018-07-30T13:35:10.547Z,34.60
2018-07-30T13:37:40.340Z,34.60
2018-07-30T13:40:10.216Z,34.70
2018-07-30T13:42:40.177Z,34.80
2018-07-30T13:45:12.009Z,34.90
2018-07-30T13:47:41.849Z,35.00
2018-07-30T13:50:11.669Z,35.30
2018-07-30T13:52:41.528Z,35.20
2018-07-30T13:55:11.452Z,35.10
2018-07-30T13:57:41.242Z,34.90
2018-07-30T14:00:11.820Z,35.10
2018-07-30T14:02:41.650Z,35.30
2018-07-30T14:05:11.466Z,35.30
2018-07-30T14:07:41.297Z,35.30
2018-07-30T14:10:11.249Z,35.40
2018-07-30T14:12:41.063Z,35.10
2018-07-30T14:15:10.909Z,34.90
2018-07-30T14:17:40.732Z,34.80
2018-07-30T14:20:10.642Z,34.70
2018-07-30T14:22:40.441Z,34.60
2018-07-30T14:25:10.300Z,34.10
2018-07-30T14:27:40.243Z,33.80
2018-07-30T14:30:10.760Z,33.70
2018-07-30T14:32:40.638Z,33.80
2018-07-30T14:35:11.113Z,33.90
2018-07-30T14:37:40.918Z,34.20
2018-07-30T14:40:13.568Z,34.20
2018-07-30T14:42:43.362Z,34.20
2018-07-30T14:45:13.169Z,34.20
2018-07-30T14:47:42.994Z,34.20
2018-07-30T14:50:12.874Z,34.20
2018-07-30T14:52:42.831Z,34.00
2018-07-30T14:55:15.769Z,33.90
2018-07-30T14:57:46.017Z,34.00
2018-07-30T15:00:15.851Z,33.90
2018-07-30T15:02:45.643Z,33.90
2018-07-30T15:05:22.900Z,34.10
2018-07-30T15:07:57.686Z,34.20
2018-07-30T15:10:30.541Z,34.40
2018-07-30T15:13:00.925Z,34.40
2018-07-30T15:15:31.825Z,34.30
2018-07-30T15:18:02.143Z,34.40
2018-07-30T15:23:01.659Z,34.80
2018-07-30T15:25:31.768Z,34.90
2018-07-30T15:28:03.033Z,34.70
2018-07-30T15:30:32.953Z,34.70
2018-07-30T15:33:02.900Z,34.90
2018-07-30T15:35:32.786Z,34.90
2018-07-30T15:38:04.278Z,35.10
2018-07-30T15:40:34.167Z,35.20
2018-07-30T15:43:03.989Z,35.10
2018-07-30T15:45:33.825Z,35.00
2018-07-30T15:48:03.712Z,34.90
2018-07-30T15:50:33.634Z,35.00
2018-07-30T15:53:03.569Z,34.90
2018-07-30T15:55:33.433Z,34.60
2018-07-30T15:58:03.296Z,34.50
2018-07-30T16:00:33.757Z,34.40
2018-07-30T16:03:03.663Z,34.40
2018-07-30T16:05:34.097Z,34.40
2018-07-30T16:08:05.505Z,34.30
2018-07-30T16:10:35.369Z,34.30
2018-07-30T16:15:35.990Z,34.50
2018-07-30T16:18:05.846Z,34.70
2018-07-30T16:20:37.192Z,34.80
2018-07-30T16:23:07.213Z,34.70
2018-07-30T16:25:37.912Z,34.60
2018-07-30T16:28:07.815Z,34.70
2018-07-30T16:30:37.699Z,34.70
2018-07-30T16:33:07.809Z,34.50
2018-07-30T16:35:37.623Z,34.50
2018-07-30T16:38:07.445Z,34.60
2018-07-30T16:40:37.671Z,34.60
2018-07-30T16:43:07.656Z,34.60
2018-07-30T16:48:08.046Z,34.50
2018-07-30T16:50:38.341Z,34.50
2018-07-30T16:55:44.596Z,34.30
2018-07-30T16:58:14.544Z,34.20
2018-07-30T17:00:44.760Z,34.10
2018-07-30T17:03:14.561Z,34.10
2018-07-30T17:05:44.457Z,34.20
2018-07-30T17:08:14.322Z,34.20
2018-07-30T17:10:44.210Z,34.10
2018-07-30T17:13:14.094Z,33.80
2018-07-30T17:15:43.930Z,33.70
2018-07-30T17:18:14.223Z,33.80
2018-07-30T17:20:46.938Z,33.70
2018-07-30T17:23:16.756Z,33.60
2018-07-30T17:25:46.727Z,33.60
2018-07-30T17:28:17.657Z,33.60
2018-07-30T17:30:48.568Z,33.50
2018-07-30T17:33:20.352Z,33.50
2018-07-30T17:35:50.944Z,33.50
2018-07-30T17:38:20.793Z,33.50
2018-07-30T17:40:53.279Z,33.50
2018-07-30T17:43:23.305Z,33.50
2018-07-30T17:45:53.716Z,33.50
2018-07-30T17:48:24.145Z,33.50
2018-07-30T17:50:54.000Z,33.30
2018-07-30T17:53:23.786Z,33.20
2018-07-30T17:55:54.250Z,33.00
2018-07-30T17:58:25.134Z,33.00
2018-07-30T18:00:55.190Z,33.00
2018-07-30T18:03:25.130Z,33.00
2018-07-30T18:05:55.108Z,33.00
2018-07-30T18:08:24.947Z,32.90
2018-07-30T18:10:55.106Z,32.90
2018-07-30T18:13:24.931Z,32.90
2018-07-30T18:15:54.801Z,32.80
2018-07-30T18:18:24.651Z,32.70
2018-07-30T18:20:55.245Z,32.70
2018-07-30T18:23:25.084Z,32.70
2018-07-30T18:25:54.869Z,32.60
2018-07-30T18:28:24.726Z,32.60
2018-07-30T18:30:54.672Z,32.50
2018-07-30T18:33:24.503Z,32.40
2018-07-30T18:35:54.421Z,32.30
2018-07-30T18:38:24.322Z,32.20
2018-07-30T18:40:54.254Z,32.20
2018-07-30T18:43:24.065Z,32.00
2018-07-30T18:45:54.523Z,32.00
2018-07-30T18:48:24.920Z,31.90
2018-07-30T18:50:54.894Z,31.90
2018-07-30T18:53:24.688Z,31.80
2018-07-30T18:55:54.704Z,31.70
2018-07-30T18:58:24.589Z,31.60
2018-07-30T19:00:55.113Z,31.40
2018-07-30T19:03:26.179Z,31.30
2018-07-30T19:05:56.146Z,31.20
2018-07-30T19:08:32.831Z,31.00
2018-07-30T19:11:03.518Z,30.90
2018-07-30T19:13:36.651Z,30.80
2018-07-30T19:16:07.074Z,30.80
2018-07-30T19:18:37.603Z,30.70
2018-07-30T19:21:08.164Z,30.70
2018-07-30T19:23:41.142Z,30.70
2018-07-30T19:26:12.374Z,30.80
2018-07-30T19:28:42.788Z,30.80
2018-07-30T19:33:42.065Z,30.70
2018-07-30T19:36:12.397Z,30.70
2018-07-30T19:38:42.716Z,30.80
2018-07-30T19:41:13.141Z,30.70
2018-07-30T19:43:44.686Z,30.80
2018-07-30T19:46:14.907Z,30.60
2018-07-30T19:48:44.742Z,30.50
2018-07-30T19:51:14.607Z,30.40
2018-07-30T19:53:44.759Z,30.40
2018-07-30T19:56:14.644Z,30.40
2018-07-30T19:58:44.578Z,30.40
2018-07-30T20:01:14.743Z,30.40
2018-07-30T20:03:45.037Z,30.40
2018-07-30T20:06:15.506Z,30.40
2018-07-30T20:08:45.391Z,30.30
2018-07-30T20:11:15.452Z,30.30
2018-07-30T20:13:45.237Z,30.20
2018-07-30T20:18:44.784Z,30.10
2018-07-30T20:21:15.120Z,30.10
2018-07-30T20:23:45.563Z,30.10
2018-07-30T20:26:15.396Z,30.10
2018-07-30T20:28:45.264Z,30.00
2018-07-30T20:34:01.011Z,29.90
2018-07-30T20:36:31.405Z,29.90
2018-07-30T20:39:01.792Z,29.80
2018-07-30T20:41:32.289Z,29.80
2018-07-30T20:44:03.324Z,29.80
2018-07-30T20:46:33.234Z,29.80
2018-07-30T20:49:03.175Z,29.80
2018-07-30T20:51:34.292Z,29.70
2018-07-30T20:54:05.608Z,29.60
2018-07-30T20:56:36.080Z,29.60
2018-07-30T20:59:06.199Z,29.60
2018-07-30T21:01:36.044Z,29.60
2018-07-30T21:04:07.371Z,29.50
2018-07-30T21:06:37.737Z,29.50
2018-07-30T21:09:09.162Z,29.30
2018-07-30T21:11:39.650Z,29.10
2018-07-30T21:14:09.724Z,28.90
2018-07-30T21:16:39.687Z,29.10
2018-07-30T21:19:09.602Z,29.00
2018-07-30T21:21:39.419Z,28.80
2018-07-30T21:24:09.323Z,28.80
2018-07-30T21:26:39.211Z,29.00
2018-07-30T21:29:09.117Z,29.10
2018-07-30T21:31:39.240Z,29.30
2018-07-30T21:34:09.087Z,29.40
2018-07-30T21:36:39.252Z,29.50
2018-07-30T21:39:11.373Z,29.60
2018-07-30T21:44:11.643Z,29.70
2018-07-30T21:46:42.451Z,29.80
2018-07-30T21:49:12.263Z,29.80
2018-07-30T21:54:11.604Z,29.80
2018-07-30T21:56:41.320Z,29.60
2018-07-30T21:59:11.756Z,29.60
2018-07-30T22:01:41.600Z,29.50
2018-07-30T22:06:41.505Z,29.50
2018-07-30T22:09:11.324Z,29.50
2018-07-30T22:11:41.179Z,29.40
2018-07-30T22:14:11.004Z,29.40
2018-07-30T22:19:10.111Z,29.30
2018-07-30T22:21:39.913Z,29.20
2018-07-30T22:24:09.790Z,29.10
2018-07-30T22:26:39.820Z,29.10
2018-07-30T22:29:09.641Z,29.00
2018-07-30T22:31:39.623Z,28.90
2018-07-30T22:34:09.435Z,28.90
2018-07-30T22:36:43.902Z,28.90
2018-07-30T22:39:14.428Z,28.90
2018-07-30T22:41:44.303Z,28.60
2018-07-30T22:44:14.116Z,28.50
2018-07-30T22:46:43.939Z,28.40
2018-07-30T22:49:13.792Z,28.30
2018-07-30T22:51:45.225Z,28.00
2018-07-30T22:54:15.032Z,27.90
2018-07-30T22:56:44.872Z,28.00
2018-07-30T23:01:44.748Z,28.20
2018-07-30T23:04:14.593Z,28.20
2018-07-30T23:06:44.427Z,28.10
2018-07-30T23:09:14.215Z,28.20
2018-07-30T23:11:45.315Z,28.30
2018-07-30T23:14:15.096Z,28.30
2018-07-30T23:16:45.562Z,28.20
2018-07-30T23:19:16.360Z,28.30
2018-07-30T23:24:15.499Z,28.40
2018-07-30T23:26:45.305Z,28.40
2018-07-30T23:29:15.111Z,28.40
2018-07-30T23:31:44.971Z,28.30
2018-07-30T23:34:14.945Z,28.40
2018-07-30T23:36:44.803Z,28.40
2018-07-30T23:41:43.996Z,28.30
2018-07-30T23:44:14.277Z,28.20
2018-07-30T23:46:44.020Z,28.20
2018-07-30T23:49:13.832Z,28.10
2018-07-30T23:51:43.693Z,28.00
2018-07-30T23:54:13.474Z,28.00
2018-07-30T23:56:43.344Z,27.90
2018-07-30T23:59:13.283Z,27.70
